sensor_id;sensor_type;location;lat;lon;timestamp;pressure;altitude;pressure_sealevel;temperature;humidity
61014;BME280;46899;47.542;19.082;2022-12-10T00:02:12;98892.03;;;4.89;100.00
61014;BME280;46899;47.542;19.082;2022-12-10T00:05:15;98893.88;;;4.85;100.00
61014;BME280;46899;47.542;19.082;2022-12-10T00:08:17;98882.47;;;4.92;100.00
61014;BME280;46899;47.542;19.082;2022-12-10T00:11:20;98890.28;;;4.89;100.00
61014;BME280;46899;47.542;19.082;2022-12-10T00:14:23;98889.34;;;4.92;100.00
61014;BME280;46899;47.542;19.082;2022-12-10T00:17:25;98892.62;;;4.95;100.00
61014;BME280;46899;47.542;19.082;2022-12-10T00:20:28;98900.50;;;4.92;100.00
61014;BME280;46899;47.542;19.082;2022-12-10T00:23:30;98901.31;;;4.93;100.00
61014;BME280;46899;47.542;19.082;2022-12-10T00:26:35;98896.94;;;4.95;100.00
61014;BME280;46899;47.542;19.082;2022-12-10T00:29:38;98912.28;;;4.99;100.00
61014;BME280;46899;47.542;19.082;2022-12-10T00:32:40;98906.19;;;5.00;100.00
61014;BME280;46899;47.542;19.082;2022-12-10T00:35:43;98925.81;;;5.04;100.00
61014;BME280;46899;47.542;19.082;2022-12-10T00:38:45;98929.06;;;5.09;100.00
61014;BME280;46899;47.542;19.082;2022-12-10T00:41:48;98928.44;;;5.03;100.00
61014;BME280;46899;47.542;19.082;2022-12-10T00:44:50;98930.88;;;5.07;100.00
61014;BME280;46899;47.542;19.082;2022-12-10T00:47:53;98940.47;;;5.04;100.00
61014;BME280;46899;47.542;19.082;2022-12-10T00:51:03;98942.09;;;5.06;100.00
61014;BME280;46899;47.542;19.082;2022-12-10T00:54:06;98944.66;;;5.06;100.00
61014;BME280;46899;47.542;19.082;2022-12-10T00:57:09;98942.13;;;5.05;100.00
61014;BME280;46899;47.542;19.082;2022-12-10T01:00:11;98944.53;;;5.09;100.00
61014;BME280;46899;47.542;19.082;2022-12-10T01:03:15;98961.78;;;5.07;100.00
61014;BME280;46899;47.542;19.082;2022-12-10T01:06:21;98953.06;;;5.11;100.00
61014;BME280;46899;47.542;19.082;2022-12-10T01:09:24;98952.25;;;5.09;100.00
61014;BME280;46899;47.542;19.082;2022-12-10T01:12:27;98943.75;;;5.07;100.00
61014;BME280;46899;47.542;19.082;2022-12-10T01:15:30;98937.59;;;5.11;100.00
61014;BME280;46899;47.542;19.082;2022-12-10T01:18:33;98953.22;;;5.07;100.00
61014;BME280;46899;47.542;19.082;2022-12-10T01:21:36;98951.59;;;5.04;100.00
61014;BME280;46899;47.542;19.082;2022-12-10T01:24:38;98953.38;;;5.02;100.00
61014;BME280;46899;47.542;19.082;2022-12-10T01:27:41;98960.00;;;5.09;100.00
61014;BME280;46899;47.542;19.082;2022-12-10T01:30:43;98959.13;;;5.10;100.00
61014;BME280;46899;47.542;19.082;2022-12-10T01:33:46;98964.19;;;5.13;100.00
61014;BME280;46899;47.542;19.082;2022-12-10T01:36:50;98954.66;;;5.15;100.00
61014;BME280;46899;47.542;19.082;2022-12-10T01:39:53;98953.72;;;5.16;100.00
61014;BME280;46899;47.542;19.082;2022-12-10T01:42:55;98958.00;;;5.17;100.00
61014;BME280;46899;47.542;19.082;2022-12-10T01:46:01;98939.78;;;5.22;100.00
61014;BME280;46899;47.542;19.082;2022-12-10T01:49:06;98937.12;;;5.25;100.00
61014;BME280;46899;47.542;19.082;2022-12-10T01:52:10;98944.00;;;5.24;100.00
61014;BME280;46899;47.542;19.082;2022-12-10T01:58:35;98949.84;;;5.29;100.00
61014;BME280;46899;47.542;19.082;2022-12-10T02:02:00;98954.22;;;5.27;100.00
61014;BME280;46899;47.542;19.082;2022-12-10T02:08:14;98967.88;;;5.29;100.00
61014;BME280;46899;47.542;19.082;2022-12-10T02:11:22;98979.69;;;5.35;100.00
61014;BME280;46899;47.542;19.082;2022-12-10T02:14:33;98979.66;;;5.36;100.00
61014;BME280;46899;47.542;19.082;2022-12-10T02:17:44;98989.97;;;5.36;100.00
61014;BME280;46899;47.542;19.082;2022-12-10T02:20:52;98985.78;;;5.34;100.00
61014;BME280;46899;47.542;19.082;2022-12-10T02:24:00;98986.63;;;5.34;100.00
61014;BME280;46899;47.542;19.082;2022-12-10T02:30:25;98979.37;;;5.67;100.00
61014;BME280;46899;47.542;19.082;2022-12-10T02:33:28;98978.94;;;5.79;100.00
61014;BME280;46899;47.542;19.082;2022-12-10T02:36:34;98982.69;;;5.94;100.00
61014;BME280;46899;47.542;19.082;2022-12-10T02:39:38;98978.84;;;6.04;100.00
61014;BME280;46899;47.542;19.082;2022-12-10T02:42:43;98983.78;;;6.10;100.00
61014;BME280;46899;47.542;19.082;2022-12-10T02:45:47;98980.19;;;6.14;100.00
61014;BME280;46899;47.542;19.082;2022-12-10T02:48:51;98988.03;;;6.11;100.00
61014;BME280;46899;47.542;19.082;2022-12-10T02:51:54;98976.88;;;6.10;100.00
61014;BME280;46899;47.542;19.082;2022-12-10T02:54:57;98975.31;;;6.06;100.00
61014;BME280;46899;47.542;19.082;2022-12-10T03:01:16;98979.09;;;5.98;100.00
61014;BME280;46899;47.542;19.082;2022-12-10T03:07:35;98984.72;;;5.86;100.00
61014;BME280;46899;47.542;19.082;2022-12-10T03:16:50;98975.38;;;5.59;100.00
61014;BME280;46899;47.542;19.082;2022-12-10T03:19:55;98985.25;;;5.47;100.00
61014;BME280;46899;47.542;19.082;2022-12-10T03:22:59;98975.97;;;5.43;100.00
61014;BME280;46899;47.542;19.082;2022-12-10T03:26:02;99000.28;;;5.36;100.00
61014;BME280;46899;47.542;19.082;2022-12-10T03:29:06;98999.88;;;5.24;100.00
61014;BME280;46899;47.542;19.082;2022-12-10T03:32:10;99011.38;;;5.15;100.00
61014;BME280;46899;47.542;19.082;2022-12-10T03:35:12;99005.56;;;5.09;100.00
61014;BME280;46899;47.542;19.082;2022-12-10T03:38:15;99023.56;;;5.10;100.00
61014;BME280;46899;47.542;19.082;2022-12-10T03:41:18;99025.97;;;5.15;100.00
61014;BME280;46899;47.542;19.082;2022-12-10T03:44:31;99020.91;;;5.12;100.00
61014;BME280;46899;47.542;19.082;2022-12-10T03:47:34;99017.66;;;5.07;100.00
61014;BME280;46899;47.542;19.082;2022-12-10T03:50:36;99015.94;;;5.07;100.00
61014;BME280;46899;47.542;19.082;2022-12-10T03:53:39;99039.13;;;5.07;100.00
61014;BME280;46899;47.542;19.082;2022-12-10T03:56:41;99041.78;;;5.04;100.00
61014;BME280;46899;47.542;19.082;2022-12-10T03:59:44;99042.63;;;5.06;100.00
61014;BME280;46899;47.542;19.082;2022-12-10T04:02:46;99041.75;;;5.06;100.00
61014;BME280;46899;47.542;19.082;2022-12-10T04:05:49;99021.88;;;5.09;100.00
61014;BME280;46899;47.542;19.082;2022-12-10T04:08:52;99017.56;;;5.10;100.00
61014;BME280;46899;47.542;19.082;2022-12-10T04:12:00;99031.38;;;5.07;100.00
61014;BME280;46899;47.542;19.082;2022-12-10T04:15:02;99034.06;;;5.04;100.00
61014;BME280;46899;47.542;19.082;2022-12-10T04:18:23;99048.75;;;5.02;100.00
61014;BME280;46899;47.542;19.082;2022-12-10T04:21:26;99052.25;;;5.00;100.00
61014;BME280;46899;47.542;19.082;2022-12-10T04:24:47;99048.97;;;4.96;100.00
61014;BME280;46899;47.542;19.082;2022-12-10T04:28:08;99056.78;;;4.93;100.00
61014;BME280;46899;47.542;19.082;2022-12-10T04:31:11;99061.75;;;4.99;100.00
61014;BME280;46899;47.542;19.082;2022-12-10T04:34:13;99058.25;;;5.00;100.00
61014;BME280;46899;47.542;19.082;2022-12-10T04:37:16;99060.91;;;4.99;100.00
61014;BME280;46899;47.542;19.082;2022-12-10T04:40:19;99057.56;;;4.95;100.00
61014;BME280;46899;47.542;19.082;2022-12-10T04:43:21;99055.94;;;4.93;100.00
61014;BME280;46899;47.542;19.082;2022-12-10T04:46:23;99047.31;;;4.94;100.00
61014;BME280;46899;47.542;19.082;2022-12-10T04:49:26;99046.47;;;4.93;100.00
61014;BME280;46899;47.542;19.082;2022-12-10T04:52:29;99042.00;;;4.98;100.00
61014;BME280;46899;47.542;19.082;2022-12-10T04:55:31;99037.03;;;4.94;100.00
61014;BME280;46899;47.542;19.082;2022-12-10T04:58:34;99047.41;;;4.91;100.00
61014;BME280;46899;47.542;19.082;2022-12-10T05:01:36;99041.37;;;4.92;100.00
61014;BME280;46899;47.542;19.082;2022-12-10T05:04:38;99038.81;;;4.92;100.00
61014;BME280;46899;47.542;19.082;2022-12-10T05:07:41;99038.84;;;4.90;100.00
61014;BME280;46899;47.542;19.082;2022-12-10T05:10:44;99050.00;;;4.91;100.00
61014;BME280;46899;47.542;19.082;2022-12-10T05:13:46;99058.66;;;4.88;100.00
61014;BME280;46899;47.542;19.082;2022-12-10T05:16:49;99063.09;;;4.84;100.00
61014;BME280;46899;47.542;19.082;2022-12-10T05:19:53;99070.84;;;4.83;100.00
61014;BME280;46899;47.542;19.082;2022-12-10T05:22:55;99069.09;;;4.85;100.00
61014;BME280;46899;47.542;19.082;2022-12-10T05:26:20;99074.44;;;4.79;100.00
61014;BME280;46899;47.542;19.082;2022-12-10T05:29:24;99088.00;;;4.84;100.00
61014;BME280;46899;47.542;19.082;2022-12-10T05:32:27;99083.78;;;4.81;100.00
61014;BME280;46899;47.542;19.082;2022-12-10T05:35:30;99091.47;;;4.83;100.00
61014;BME280;46899;47.542;19.082;2022-12-10T05:38:33;99089.97;;;4.76;100.00
61014;BME280;46899;47.542;19.082;2022-12-10T05:41:36;99087.53;;;4.73;100.00
61014;BME280;46899;47.542;19.082;2022-12-10T05:44:39;99084.25;;;4.68;100.00
61014;BME280;46899;47.542;19.082;2022-12-10T05:47:42;99081.84;;;4.62;100.00
61014;BME280;46899;47.542;19.082;2022-12-10T05:50:44;99084.41;;;4.62;100.00
61014;BME280;46899;47.542;19.082;2022-12-10T05:53:47;99081.84;;;4.62;100.00
61014;BME280;46899;47.542;19.082;2022-12-10T05:56:49;99091.34;;;4.60;100.00
61014;BME280;46899;47.542;19.082;2022-12-10T05:59:51;99107.72;;;4.59;100.00
61014;BME280;46899;47.542;19.082;2022-12-10T06:02:54;99088.00;;;4.58;100.00
61014;BME280;46899;47.542;19.082;2022-12-10T06:05:57;99085.41;;;4.58;100.00
61014;BME280;46899;47.542;19.082;2022-12-10T06:08:59;99089.06;;;4.51;100.00
61014;BME280;46899;47.542;19.082;2022-12-10T06:12:02;99100.28;;;4.50;100.00
61014;BME280;46899;47.542;19.082;2022-12-10T06:15:04;99102.94;;;4.47;100.00
61014;BME280;46899;47.542;19.082;2022-12-10T06:18:07;99111.53;;;4.46;100.00
61014;BME280;46899;47.542;19.082;2022-12-10T06:21:11;99110.69;;;4.45;100.00
61014;BME280;46899;47.542;19.082;2022-12-10T06:24:14;99119.31;;;4.44;100.00
61014;BME280;46899;47.542;19.082;2022-12-10T06:27:16;99125.25;;;4.46;100.00
61014;BME280;46899;47.542;19.082;2022-12-10T06:30:19;99128.59;;;4.50;100.00
61014;BME280;46899;47.542;19.082;2022-12-10T06:33:22;99125.22;;;4.48;100.00
61014;BME280;46899;47.542;19.082;2022-12-10T06:36:24;99127.84;;;4.46;100.00
61014;BME280;46899;47.542;19.082;2022-12-10T06:39:27;99123.63;;;4.44;100.00
61014;BME280;46899;47.542;19.082;2022-12-10T06:42:29;99114.16;;;4.44;100.00
61014;BME280;46899;47.542;19.082;2022-12-10T06:45:31;99124.63;;;4.40;100.00
61014;BME280;46899;47.542;19.082;2022-12-10T06:48:34;99128.19;;;4.34;100.00
61014;BME280;46899;47.542;19.082;2022-12-10T06:51:37;99140.09;;;4.38;100.00
61014;BME280;46899;47.542;19.082;2022-12-10T06:54:40;99145.06;;;4.44;100.00
61014;BME280;46899;47.542;19.082;2022-12-10T06:57:42;99141.72;;;4.41;100.00
61014;BME280;46899;47.542;19.082;2022-12-10T07:00:45;99132.34;;;4.40;100.00
61014;BME280;46899;47.542;19.082;2022-12-10T07:03:48;99134.19;;;4.35;100.00
61014;BME280;46899;47.542;19.082;2022-12-10T07:06:51;99137.72;;;4.32;100.00
61014;BME280;46899;47.542;19.082;2022-12-10T07:09:53;99134.38;;;4.29;100.00
61014;BME280;46899;47.542;19.082;2022-12-10T07:12:56;99133.63;;;4.25;100.00
61014;BME280;46899;47.542;19.082;2022-12-10T07:15:58;99139.06;;;4.14;100.00
61014;BME280;46899;47.542;19.082;2022-12-10T07:19:02;99141.75;;;4.11;100.00
61014;BME280;46899;47.542;19.082;2022-12-10T07:22:04;99140.06;;;4.10;100.00
61014;BME280;46899;47.542;19.082;2022-12-10T07:25:07;99145.97;;;4.14;100.00
61014;BME280;46899;47.542;19.082;2022-12-10T07:28:10;99133.31;;;4.06;100.00
61014;BME280;46899;47.542;19.082;2022-12-10T07:31:12;99137.41;;;4.13;100.00
61014;BME280;46899;47.542;19.082;2022-12-10T07:34:15;99144.19;;;4.16;100.00
61014;BME280;46899;47.542;19.082;2022-12-10T07:37:17;99122.75;;;4.15;100.00
61014;BME280;46899;47.542;19.082;2022-12-10T07:40:20;99119.31;;;4.17;100.00
61014;BME280;46899;47.542;19.082;2022-12-10T07:43:22;99109.00;;;4.17;100.00
61014;BME280;46899;47.542;19.082;2022-12-10T07:46:29;99107.94;;;4.24;100.00
61014;BME280;46899;47.542;19.082;2022-12-10T07:49:31;99117.31;;;4.25;100.00
61014;BME280;46899;47.542;19.082;2022-12-10T07:52:34;99125.03;;;4.26;100.00
61014;BME280;46899;47.542;19.082;2022-12-10T07:55:36;99123.25;;;4.28;100.00
61014;BME280;46899;47.542;19.082;2022-12-10T07:58:43;99130.25;;;4.23;100.00
61014;BME280;46899;47.542;19.082;2022-12-10T08:01:46;99140.50;;;4.25;100.00
61014;BME280;46899;47.542;19.082;2022-12-10T08:04:50;99145.56;;;4.28;100.00
61014;BME280;46899;47.542;19.082;2022-12-10T08:07:52;99156.25;;;4.43;100.00
61014;BME280;46899;47.542;19.082;2022-12-10T08:11:03;99137.97;;;4.80;100.00
61014;BME280;46899;47.542;19.082;2022-12-10T08:14:06;99125.37;;;4.97;100.00
61014;BME280;46899;47.542;19.082;2022-12-10T08:17:08;99109.16;;;5.20;100.00
61014;BME280;46899;47.542;19.082;2022-12-10T08:20:10;99137.13;;;5.32;100.00
61014;BME280;46899;47.542;19.082;2022-12-10T08:23:13;99132.56;;;5.14;100.00
61014;BME280;46899;47.542;19.082;2022-12-10T08:26:16;99133.81;;;5.02;100.00
61014;BME280;46899;47.542;19.082;2022-12-10T08:29:19;99129.94;;;5.15;100.00
61014;BME280;46899;47.542;19.082;2022-12-10T08:32:23;99130.03;;;5.12;100.00
61014;BME280;46899;47.542;19.082;2022-12-10T08:35:25;99132.69;;;5.35;100.00
61014;BME280;46899;47.542;19.082;2022-12-10T08:38:28;99128.12;;;5.43;100.00
61014;BME280;46899;47.542;19.082;2022-12-10T08:41:31;99124.09;;;5.36;100.00
61014;BME280;46899;47.542;19.082;2022-12-10T08:44:33;99123.13;;;5.39;100.00
61014;BME280;46899;47.542;19.082;2022-12-10T08:47:36;99129.00;;;5.44;100.00
61014;BME280;46899;47.542;19.082;2022-12-10T08:50:38;99124.37;;;5.52;100.00
61014;BME280;46899;47.542;19.082;2022-12-10T08:53:41;99130.19;;;5.59;100.00
61014;BME280;46899;47.542;19.082;2022-12-10T08:56:44;99139.16;;;5.48;100.00
61014;BME280;46899;47.542;19.082;2022-12-10T08:59:46;99145.25;;;5.46;100.00
61014;BME280;46899;47.542;19.082;2022-12-10T09:02:48;99145.28;;;5.44;100.00
61014;BME280;46899;47.542;19.082;2022-12-10T09:05:51;99152.91;;;5.47;100.00
61014;BME280;46899;47.542;19.082;2022-12-10T09:08:54;99152.06;;;5.47;100.00
61014;BME280;46899;47.542;19.082;2022-12-10T09:11:56;99152.47;;;5.35;100.00
61014;BME280;46899;47.542;19.082;2022-12-10T09:15:00;99157.53;;;5.38;100.00
61014;BME280;46899;47.542;19.082;2022-12-10T09:18:02;99146.38;;;5.37;100.00
61014;BME280;46899;47.542;19.082;2022-12-10T09:21:05;99167.53;;;5.22;100.00
61014;BME280;46899;47.542;19.082;2022-12-10T09:24:08;99159.03;;;5.19;100.00
61014;BME280;46899;47.542;19.082;2022-12-10T09:27:11;99152.91;;;5.23;100.00
61014;BME280;46899;47.542;19.082;2022-12-10T09:30:13;99143.97;;;5.33;100.00
61014;BME280;46899;47.542;19.082;2022-12-10T09:33:16;99136.19;;;5.34;100.00
61014;BME280;46899;47.542;19.082;2022-12-10T09:36:18;99138.78;;;5.34;100.00
61014;BME280;46899;47.542;19.082;2022-12-10T09:39:21;99146.22;;;5.42;100.00
61014;BME280;46899;47.542;19.082;2022-12-10T09:42:34;99153.16;;;5.41;100.00
61014;BME280;46899;47.542;19.082;2022-12-10T09:51:45;99126.63;;;5.63;100.00
61014;BME280;46899;47.542;19.082;2022-12-10T09:54:58;99121.38;;;5.64;100.00
61014;BME280;46899;47.542;19.082;2022-12-10T09:58:02;99125.34;;;5.49;100.00
61014;BME280;46899;47.542;19.082;2022-12-10T10:01:06;99119.47;;;5.46;100.00
61014;BME280;46899;47.542;19.082;2022-12-10T10:04:14;99102.19;;;5.48;100.00
61014;BME280;46899;47.542;19.082;2022-12-10T10:07:21;99101.50;;;5.43;100.00
61014;BME280;46899;47.542;19.082;2022-12-10T10:10:26;99113.69;;;5.38;100.00
61014;BME280;46899;47.542;19.082;2022-12-10T10:13:36;99107.38;;;5.46;100.00
61014;BME280;46899;47.542;19.082;2022-12-10T10:16:50;99101.28;;;5.49;100.00
61014;BME280;46899;47.542;19.082;2022-12-10T10:19:55;99095.31;;;5.47;100.00
61014;BME280;46899;47.542;19.082;2022-12-10T10:22:57;99081.44;;;5.51;100.00
61014;BME280;46899;47.542;19.082;2022-12-10T10:26:01;99098.06;;;5.42;100.00
61014;BME280;46899;47.542;19.082;2022-12-10T10:29:07;99098.81;;;5.46;100.00
61014;BME280;46899;47.542;19.082;2022-12-10T10:32:12;99095.66;;;5.38;100.00
61014;BME280;46899;47.542;19.082;2022-12-10T10:36:02;99096.50;;;5.38;100.00
61014;BME280;46899;47.542;19.082;2022-12-10T10:38:39;99100.75;;;5.39;100.00
61014;BME280;46899;47.542;19.082;2022-12-10T10:41:50;99086.53;;;5.28;100.00
61014;BME280;46899;47.542;19.082;2022-12-10T10:44:59;99087.19;;;5.34;100.00
61014;BME280;46899;47.542;19.082;2022-12-10T10:57:38;99105.91;;;5.39;100.00
61014;BME280;46899;47.542;19.082;2022-12-10T11:00:41;99105.34;;;5.31;100.00
61014;BME280;46899;47.542;19.082;2022-12-10T11:03:47;99111.19;;;5.36;100.00
61014;BME280;46899;47.542;19.082;2022-12-10T11:06:51;99099.13;;;5.37;100.00
61014;BME280;46899;47.542;19.082;2022-12-10T11:09:56;99093.31;;;5.30;100.00
61014;BME280;46899;47.542;19.082;2022-12-10T11:13:06;99086.91;;;5.17;100.00
61014;BME280;46899;47.542;19.082;2022-12-10T11:16:17;99079.97;;;5.19;100.00
61014;BME280;46899;47.542;19.082;2022-12-10T11:19:22;99083.53;;;5.15;100.00
61014;BME280;46899;47.542;19.082;2022-12-10T11:22:32;99078.69;;;5.06;100.00
61014;BME280;46899;47.542;19.082;2022-12-10T11:25:46;99084.34;;;5.17;100.00
61014;BME280;46899;47.542;19.082;2022-12-10T11:35:30;99062.94;;;5.14;100.00
61014;BME280;46899;47.542;19.082;2022-12-10T11:48:29;99042.88;;;4.72;100.00
61014;BME280;46899;47.542;19.082;2022-12-10T12:17:28;98992.50;;;4.38;100.00
61014;BME280;46899;47.542;19.082;2022-12-10T12:20:46;98993.53;;;4.32;100.00
61014;BME280;46899;47.542;19.082;2022-12-10T12:24:09;98987.69;;;4.27;100.00
61014;BME280;46899;47.542;19.082;2022-12-10T12:30:35;98978.31;;;4.25;100.00
61014;BME280;46899;47.542;19.082;2022-12-10T12:33:41;98976.81;;;4.19;100.00
61014;BME280;46899;47.542;19.082;2022-12-10T12:36:44;98986.28;;;4.17;100.00
61014;BME280;46899;47.542;19.082;2022-12-10T12:43:10;98972.03;;;4.07;100.00
61014;BME280;46899;47.542;19.082;2022-12-10T12:46:16;98969.41;;;4.08;100.00
61014;BME280;46899;47.542;19.082;2022-12-10T12:52:29;98980.47;;;4.10;100.00
61014;BME280;46899;47.542;19.082;2022-12-10T12:55:37;98979.63;;;4.10;100.00
61014;BME280;46899;47.542;19.082;2022-12-10T12:58:47;98984.84;;;4.08;100.00
61014;BME280;46899;47.542;19.082;2022-12-10T13:01:52;98986.56;;;4.08;100.00
61014;BME280;46899;47.542;19.082;2022-12-10T13:04:56;98991.16;;;3.98;100.00
61014;BME280;46899;47.542;19.082;2022-12-10T13:11:27;98999.12;;;3.91;100.00
61014;BME280;46899;47.542;19.082;2022-12-10T13:17:33;98996.56;;;3.89;100.00
61014;BME280;46899;47.542;19.082;2022-12-10T13:27:02;99006.88;;;3.89;100.00
61014;BME280;46899;47.542;19.082;2022-12-10T13:33:16;99003.78;;;3.78;100.00
61014;BME280;46899;47.542;19.082;2022-12-10T13:36:26;99001.87;;;3.85;100.00
61014;BME280;46899;47.542;19.082;2022-12-10T13:42:32;98993.75;;;3.69;100.00
61014;BME280;46899;47.542;19.082;2022-12-10T13:46:19;98998.00;;;3.70;100.00
61014;BME280;46899;47.542;19.082;2022-12-10T13:49:18;98990.28;;;3.70;100.00
61014;BME280;46899;47.542;19.082;2022-12-10T13:52:31;98989.50;;;3.68;100.00
61014;BME280;46899;47.542;19.082;2022-12-10T13:55:38;98993.84;;;3.66;100.00
61014;BME280;46899;47.542;19.082;2022-12-10T14:01:47;98991.12;;;3.71;100.00
61014;BME280;46899;47.542;19.082;2022-12-10T14:08:05;98982.19;;;3.55;100.00
61014;BME280;46899;47.542;19.082;2022-12-10T14:11:22;98971.06;;;3.54;100.00
61014;BME280;46899;47.542;19.082;2022-12-10T14:14:29;98964.28;;;3.52;100.00
61014;BME280;46899;47.542;19.082;2022-12-10T14:17:37;98970.34;;;3.49;100.00
61014;BME280;46899;47.542;19.082;2022-12-10T14:20:51;98968.81;;;3.43;100.00
61014;BME280;46899;47.542;19.082;2022-12-10T14:23:54;98963.78;;;3.39;100.00
61014;BME280;46899;47.542;19.082;2022-12-10T14:27:03;98975.75;;;3.40;100.00
61014;BME280;46899;47.542;19.082;2022-12-10T14:30:17;98974.09;;;3.39;100.00
61014;BME280;46899;47.542;19.082;2022-12-10T14:33:21;98973.97;;;3.42;100.00
61014;BME280;46899;47.542;19.082;2022-12-10T14:36:26;98985.03;;;3.44;100.00
61014;BME280;46899;47.542;19.082;2022-12-10T14:39:30;98972.19;;;3.44;100.00
61014;BME280;46899;47.542;19.082;2022-12-10T14:42:34;98968.88;;;3.40;100.00
61014;BME280;46899;47.542;19.082;2022-12-10T14:48:45;98965.53;;;3.37;100.00
61014;BME280;46899;47.542;19.082;2022-12-10T14:51:51;98968.88;;;3.40;100.00
61014;BME280;46899;47.542;19.082;2022-12-10T14:54:54;98979.37;;;3.33;100.00
61014;BME280;46899;47.542;19.082;2022-12-10T14:57:57;98980.97;;;3.37;100.00
61014;BME280;46899;47.542;19.082;2022-12-10T15:01:01;98975.75;;;3.40;100.00
61014;BME280;46899;47.542;19.082;2022-12-10T15:04:05;98980.94;;;3.38;100.00
61014;BME280;46899;47.542;19.082;2022-12-10T15:07:19;98975.00;;;3.36;100.00
61014;BME280;46899;47.542;19.082;2022-12-10T15:10:26;98972.56;;;3.32;100.00
61014;BME280;46899;47.542;19.082;2022-12-10T15:19:36;98964.03;;;3.30;100.00
61014;BME280;46899;47.542;19.082;2022-12-10T15:22:39;98951.81;;;3.38;100.00
61014;BME280;46899;47.542;19.082;2022-12-10T15:29:14;98953.50;;;3.39;100.00
61014;BME280;46899;47.542;19.082;2022-12-10T15:32:25;98951.88;;;3.36;100.00
61014;BME280;46899;47.542;19.082;2022-12-10T15:35:34;98944.28;;;3.32;100.00
61014;BME280;46899;47.542;19.082;2022-12-10T15:38:37;98945.09;;;3.34;100.00
61014;BME280;46899;47.542;19.082;2022-12-10T15:41:41;98945.09;;;3.34;100.00
61014;BME280;46899;47.542;19.082;2022-12-10T15:44:45;98939.19;;;3.30;100.00
61014;BME280;46899;47.542;19.082;2022-12-10T15:47:48;98933.81;;;3.38;100.00
61014;BME280;46899;47.542;19.082;2022-12-10T15:50:51;98931.19;;;3.41;100.00
61014;BME280;46899;47.542;19.082;2022-12-10T15:53:54;98944.09;;;3.38;100.00
61014;BME280;46899;47.542;19.082;2022-12-10T15:56:56;98932.19;;;3.35;100.00
61014;BME280;46899;47.542;19.082;2022-12-10T15:59:59;98928.69;;;3.38;100.00
61014;BME280;46899;47.542;19.082;2022-12-10T16:03:14;98929.41;;;3.43;100.00
61014;BME280;46899;47.542;19.082;2022-12-10T16:06:17;98926.78;;;3.44;100.00
61014;BME280;46899;47.542;19.082;2022-12-10T16:09:21;98923.12;;;3.52;100.00
61014;BME280;46899;47.542;19.082;2022-12-10T16:12:23;98913.69;;;3.52;100.00
61014;BME280;46899;47.542;19.082;2022-12-10T16:15:26;98918.78;;;3.54;100.00
61014;BME280;46899;47.542;19.082;2022-12-10T16:18:30;98911.84;;;3.57;100.00
61014;BME280;46899;47.542;19.082;2022-12-10T16:21:35;98910.97;;;3.57;100.00
61014;BME280;46899;47.542;19.082;2022-12-10T16:24:38;98914.72;;;3.46;100.00
61014;BME280;46899;47.542;19.082;2022-12-10T16:27:46;98911.06;;;3.54;100.00
61014;BME280;46899;47.542;19.082;2022-12-10T16:30:49;98902.47;;;3.55;100.00
61014;BME280;46899;47.542;19.082;2022-12-10T16:33:52;98903.41;;;3.52;100.00
61014;BME280;46899;47.542;19.082;2022-12-10T16:36:55;98895.47;;;3.60;100.00
61014;BME280;46899;47.542;19.082;2022-12-10T16:39:57;98893.78;;;3.59;100.00
61014;BME280;46899;47.542;19.082;2022-12-10T16:43:02;98887.00;;;3.56;100.00
61014;BME280;46899;47.542;19.082;2022-12-10T16:46:04;98880.34;;;3.51;100.00
61014;BME280;46899;47.542;19.082;2022-12-10T16:49:07;98880.91;;;3.59;100.00
61014;BME280;46899;47.542;19.082;2022-12-10T16:52:15;98873.97;;;3.62;100.00
61014;BME280;46899;47.542;19.082;2022-12-10T16:55:19;98879.13;;;3.62;100.00
61014;BME280;46899;47.542;19.082;2022-12-10T16:58:22;98878.13;;;3.66;100.00
61014;BME280;46899;47.542;19.082;2022-12-10T17:01:26;98867.00;;;3.66;100.00
61014;BME280;46899;47.542;19.082;2022-12-10T17:04:35;98870.31;;;3.69;100.00
61014;BME280;46899;47.542;19.082;2022-12-10T17:07:38;98861.69;;;3.70;100.00
61014;BME280;46899;47.542;19.082;2022-12-10T17:10:40;98860.81;;;3.71;100.00
61014;BME280;46899;47.542;19.082;2022-12-10T17:14:02;98851.53;;;3.67;100.00
61014;BME280;46899;47.542;19.082;2022-12-10T17:17:05;98852.25;;;3.71;100.00
61014;BME280;46899;47.542;19.082;2022-12-10T17:20:15;98846.94;;;3.77;100.00
61014;BME280;46899;47.542;19.082;2022-12-10T17:23:18;98849.63;;;3.72;100.00
61014;BME280;46899;47.542;19.082;2022-12-10T17:29:31;98839.62;;;3.63;100.00
61014;BME280;46899;47.542;19.082;2022-12-10T17:32:34;98840.34;;;3.68;100.00
61014;BME280;46899;47.542;19.082;2022-12-10T17:35:36;98832.53;;;3.71;100.00
61014;BME280;46899;47.542;19.082;2022-12-10T17:38:39;98818.75;;;3.72;100.00
61014;BME280;46899;47.542;19.082;2022-12-10T17:41:42;98820.31;;;3.78;100.00
61014;BME280;46899;47.542;19.082;2022-12-10T17:44:44;98813.50;;;3.77;100.00
61014;BME280;46899;47.542;19.082;2022-12-10T17:47:46;98806.59;;;3.77;100.00
61014;BME280;46899;47.542;19.082;2022-12-10T17:50:50;98805.63;;;3.81;100.00
61014;BME280;46899;47.542;19.082;2022-12-10T17:53:52;98799.78;;;3.76;100.00
61014;BME280;46899;47.542;19.082;2022-12-10T17:56:55;98808.28;;;3.78;100.00
61014;BME280;46899;47.542;19.082;2022-12-10T17:59:57;98807.44;;;3.78;100.00
61014;BME280;46899;47.542;19.082;2022-12-10T18:03:00;98796.31;;;3.77;100.00
61014;BME280;46899;47.542;19.082;2022-12-10T18:06:11;98799.88;;;3.73;100.00
61014;BME280;46899;47.542;19.082;2022-12-10T18:09:14;98795.75;;;3.69;100.00
61014;BME280;46899;47.542;19.082;2022-12-10T18:12:17;98786.88;;;3.78;100.00
61014;BME280;46899;47.542;19.082;2022-12-10T18:15:20;98785.94;;;3.80;100.00
61014;BME280;46899;47.542;19.082;2022-12-10T18:18:23;98783.56;;;3.74;100.00